createdAt,value
2022-09-23T00:01:00.798Z,13.16
2022-09-23T00:03:29.177Z,13.18
2022-09-23T00:06:00.560Z,13.13
2022-09-23T00:08:27.362Z,13.07
2022-09-23T00:10:54.221Z,13.12
2022-09-23T00:13:20.638Z,13.06
2022-09-23T00:15:47.100Z,13.13
2022-09-23T00:18:13.728Z,13.15
2022-09-23T00:20:40.463Z,12.99
2022-09-23T00:23:07.096Z,13.09
2022-09-23T00:25:33.935Z,13.06
2022-09-23T00:28:00.452Z,13.12
2022-09-23T00:30:27.201Z,13.13
2022-09-23T00:32:53.818Z,13.13
2022-09-23T00:35:20.326Z,13.12
2022-09-23T00:37:46.783Z,13.11
2022-09-23T00:40:13.708Z,13.04
2022-09-23T00:42:58.316Z,12.99
2022-09-23T00:45:24.798Z,12.98
2022-09-23T00:47:55.000Z,12.98
2022-09-23T00:50:21.371Z,13.03
2022-09-23T00:52:50.680Z,12.98
2022-09-23T00:55:23.934Z,12.95
2022-09-23T00:57:54.489Z,12.97
2022-09-23T01:00:22.510Z,12.92
2022-09-23T01:02:49.467Z,12.96
2022-09-23T01:05:17.481Z,12.95
2022-09-23T01:07:44.945Z,12.91
2022-09-23T01:10:13.695Z,12.92
2022-09-23T01:13:25.025Z,12.89
2022-09-23T01:16:19.363Z,12.91
2022-09-23T01:19:01.801Z,12.92
2022-09-23T01:21:57.004Z,12.75
2022-09-23T01:24:46.609Z,12.73
2022-09-23T01:27:39.451Z,12.81
2022-09-23T01:30:29.751Z,12.68
2022-09-23T01:32:59.196Z,12.74
2022-09-23T01:35:40.619Z,12.80
2022-09-23T01:38:36.252Z,12.73
2022-09-23T01:41:08.845Z,12.74
2022-09-23T01:44:02.200Z,12.68
2022-09-23T01:46:38.087Z,12.69
2022-09-23T01:49:16.427Z,12.67
2022-09-23T01:51:48.758Z,12.70
2022-09-23T01:54:22.588Z,12.62
2022-09-23T01:56:54.625Z,12.54
2022-09-23T01:59:28.982Z,12.52
2022-09-23T02:02:17.163Z,12.58
2022-09-23T02:04:54.097Z,12.52
2022-09-23T02:07:35.303Z,12.57
2022-09-23T02:10:22.963Z,12.58
2022-09-23T02:12:54.007Z,12.56
2022-09-23T02:15:28.358Z,12.57
2022-09-23T02:18:08.724Z,12.53
2022-09-23T02:20:39.738Z,12.43
2022-09-23T02:23:13.049Z,12.49
2022-09-23T02:25:58.070Z,12.48
2022-09-23T02:28:30.808Z,12.47
2022-09-23T02:31:16.345Z,12.42
2022-09-23T02:34:07.691Z,12.41
2022-09-23T02:37:04.037Z,12.37
2022-09-23T02:39:39.194Z,12.42
2022-09-23T02:42:12.688Z,12.37
2022-09-23T02:44:40.516Z,12.37
2022-09-23T02:47:07.596Z,12.33
2022-09-23T02:49:36.448Z,12.37
2022-09-23T02:52:05.536Z,12.35
2022-09-23T02:54:36.055Z,12.37
2022-09-23T02:57:05.721Z,12.35
2022-09-23T02:59:34.100Z,12.41
2022-09-23T03:02:29.169Z,12.36
2022-09-23T03:05:09.873Z,12.39
2022-09-23T03:07:55.962Z,12.35
2022-09-23T03:10:41.929Z,12.19
2022-09-23T03:13:39.534Z,12.28
2022-09-23T03:16:21.660Z,12.17
2022-09-23T03:19:06.960Z,12.22
2022-09-23T03:21:55.488Z,12.16
2022-09-23T03:24:24.752Z,12.15
2022-09-23T03:26:53.905Z,12.19
2022-09-23T03:29:23.159Z,12.13
2022-09-23T03:31:49.682Z,12.15
2022-09-23T03:34:22.818Z,12.07
2022-09-23T03:37:01.493Z,12.13
2022-09-23T03:39:48.659Z,12.16
2022-09-23T03:42:30.001Z,12.11
2022-09-23T03:44:57.641Z,12.14
2022-09-23T03:47:26.533Z,12.21
2022-09-23T03:49:53.936Z,12.15
2022-09-23T03:52:25.474Z,12.09
2022-09-23T03:54:52.265Z,12.14
2022-09-23T03:57:21.920Z,12.14
2022-09-23T03:59:51.732Z,12.16
2022-09-23T04:02:20.039Z,12.20
2022-09-23T04:04:46.763Z,12.19
2022-09-23T04:07:13.887Z,12.21
2022-09-23T04:09:40.831Z,12.19
2022-09-23T04:12:08.365Z,12.08
2022-09-23T04:14:35.276Z,12.08
2022-09-23T04:17:01.860Z,11.99
2022-09-23T04:19:28.430Z,11.95
2022-09-23T04:21:54.884Z,11.95
2022-09-23T04:24:22.036Z,11.95
2022-09-23T04:26:56.599Z,11.95
2022-09-23T04:29:24.430Z,11.98
2022-09-23T04:31:51.912Z,11.98
2022-09-23T04:34:19.376Z,11.93
2022-09-23T04:36:47.209Z,11.89
2022-09-23T04:39:17.436Z,11.87
2022-09-23T04:41:45.505Z,11.76
2022-09-23T04:44:13.414Z,11.77
2022-09-23T04:46:41.697Z,11.77
2022-09-23T04:49:08.359Z,11.75
2022-09-23T04:51:35.349Z,11.83
2022-09-23T04:54:01.940Z,11.82
2022-09-23T04:56:32.550Z,11.85
2022-09-23T04:59:01.552Z,11.82
2022-09-23T05:01:31.080Z,11.69
2022-09-23T05:04:02.748Z,11.66
2022-09-23T05:06:31.417Z,11.76
2022-09-23T05:08:59.185Z,11.77
2022-09-23T05:11:26.596Z,11.78
2022-09-23T05:13:54.270Z,11.76
2022-09-23T05:16:25.572Z,11.83
2022-09-23T05:18:52.413Z,11.84
2022-09-23T05:21:21.838Z,11.78
2022-09-23T05:23:55.342Z,11.81
2022-09-23T05:26:25.239Z,11.69
2022-09-23T05:28:52.615Z,11.73
2022-09-23T05:31:21.576Z,11.68
2022-09-23T05:33:59.812Z,11.81
2022-09-23T05:36:27.799Z,11.77
2022-09-23T05:38:56.575Z,11.72
2022-09-23T05:41:24.669Z,11.81
2022-09-23T05:43:55.158Z,11.77
2022-09-23T05:46:25.607Z,11.89
2022-09-23T05:48:52.107Z,11.88
2022-09-23T05:51:21.024Z,11.84
2022-09-23T05:53:48.514Z,11.84
2022-09-23T05:56:17.612Z,11.65
2022-09-23T05:58:44.719Z,11.61
2022-09-23T06:01:24.761Z,11.77
2022-09-23T06:03:56.240Z,11.77
2022-09-23T06:06:28.948Z,11.69
2022-09-23T06:08:56.095Z,11.79
2022-09-23T06:11:22.696Z,11.81
2022-09-23T06:13:50.229Z,11.78
2022-09-23T06:16:16.756Z,11.72
2022-09-23T06:18:45.692Z,11.68
2022-09-23T06:21:17.029Z,11.78
2022-09-23T06:23:44.709Z,11.89
2022-09-23T06:26:13.968Z,11.80
2022-09-23T06:28:42.785Z,11.88
2022-09-23T06:31:15.586Z,12.00
2022-09-23T06:33:43.394Z,12.04
2022-09-23T06:36:10.692Z,12.10
2022-09-23T06:38:44.657Z,12.17
2022-09-23T06:41:12.144Z,12.24
2022-09-23T06:43:38.928Z,12.37
2022-09-23T06:46:07.322Z,12.32
2022-09-23T06:48:35.323Z,12.41
2022-09-23T06:51:04.091Z,12.46
2022-09-23T06:53:34.747Z,12.51
2022-09-23T06:56:03.699Z,12.51
2022-09-23T06:58:32.048Z,12.59
2022-09-23T07:01:07.039Z,12.61
2022-09-23T07:03:34.500Z,12.77
2022-09-23T07:06:01.477Z,12.86
2022-09-23T07:08:30.061Z,12.89
2022-09-23T07:11:02.289Z,13.03
2022-09-23T07:13:30.228Z,13.18
2022-09-23T07:15:58.914Z,13.22
2022-09-23T07:18:26.345Z,13.17
2022-09-23T07:20:53.469Z,13.17
2022-09-23T07:23:20.480Z,13.24
2022-09-23T07:25:50.239Z,13.29
2022-09-23T07:28:17.326Z,13.44
2022-09-23T07:30:56.128Z,13.40
2022-09-23T07:33:32.196Z,13.46
2022-09-23T07:35:59.603Z,13.36
2022-09-23T07:38:29.903Z,13.49
2022-09-23T07:41:08.843Z,13.47
2022-09-23T07:43:35.739Z,13.62
2022-09-23T07:46:07.024Z,13.76
2022-09-23T07:48:35.373Z,13.67
2022-09-23T07:51:36.116Z,13.76
2022-09-23T07:54:03.509Z,13.87
2022-09-23T07:56:30.765Z,13.76
2022-09-23T07:59:00.657Z,13.81
2022-09-23T08:01:29.464Z,13.94
2022-09-23T08:04:01.255Z,13.98
2022-09-23T08:06:28.126Z,14.00
2022-09-23T08:08:58.119Z,14.13
2022-09-23T08:11:26.522Z,14.20
2022-09-23T08:13:53.881Z,14.16
2022-09-23T08:16:21.735Z,14.28
2022-09-23T08:18:48.369Z,14.27
2022-09-23T08:21:20.301Z,14.32
2022-09-23T08:23:47.084Z,14.45
2022-09-23T08:26:20.241Z,14.50
2022-09-23T08:28:47.966Z,14.53
2022-09-23T08:31:14.586Z,14.63
2022-09-23T08:33:41.190Z,14.55
2022-09-23T08:36:08.087Z,14.52
2022-09-23T08:38:34.649Z,14.63
2022-09-23T08:41:27.811Z,14.68
2022-09-23T08:43:59.049Z,14.77
2022-09-23T08:46:32.138Z,14.87
2022-09-23T08:49:01.362Z,14.82
2022-09-23T08:51:40.017Z,14.87
2022-09-23T08:54:11.208Z,14.92
2022-09-23T08:56:39.093Z,15.01
2022-09-23T08:59:19.309Z,14.99
2022-09-23T09:01:53.524Z,15.02
2022-09-23T09:04:54.412Z,15.05
2022-09-23T09:07:37.413Z,15.15
2022-09-23T09:10:11.704Z,15.20
2022-09-23T09:12:47.549Z,15.26
2022-09-23T09:15:24.292Z,15.30
2022-09-23T09:18:11.376Z,15.27
2022-09-23T09:20:50.931Z,15.31
2022-09-23T09:23:26.248Z,15.30
2022-09-23T09:25:57.246Z,15.39
2022-09-23T09:28:31.122Z,15.46
2022-09-23T09:31:02.410Z,15.40
2022-09-23T09:33:44.642Z,15.46
2022-09-23T09:36:24.910Z,15.69
2022-09-23T09:38:53.239Z,15.72
2022-09-23T09:41:24.514Z,15.84
2022-09-23T09:44:00.668Z,15.91
2022-09-23T09:46:55.063Z,16.02
2022-09-23T09:49:40.361Z,16.09
2022-09-23T09:52:26.088Z,16.11
2022-09-23T09:54:52.849Z,16.08
2022-09-23T09:57:33.574Z,16.23
2022-09-23T10:00:26.285Z,16.34
2022-09-23T10:02:55.483Z,16.45
2022-09-23T10:05:34.085Z,16.41
2022-09-23T10:08:21.920Z,16.50
2022-09-23T10:10:54.887Z,16.62
2022-09-23T10:13:27.458Z,16.54
2022-09-23T10:15:54.909Z,16.58
2022-09-23T10:18:51.238Z,16.66
2022-09-23T10:21:26.871Z,16.61
2022-09-23T10:24:01.578Z,16.74
2022-09-23T10:26:34.523Z,16.85
2022-09-23T10:29:03.865Z,16.92
2022-09-23T10:31:35.680Z,16.92
2022-09-23T10:34:20.667Z,16.95
2022-09-23T10:37:01.566Z,16.82
2022-09-23T10:39:47.189Z,17.05
2022-09-23T10:42:47.140Z,17.08
2022-09-23T10:45:43.300Z,16.89
2022-09-23T10:48:38.412Z,17.07
2022-09-23T10:51:14.475Z,17.20
2022-09-23T10:53:58.797Z,17.25
2022-09-23T10:56:48.327Z,17.15
2022-09-23T10:59:33.506Z,17.07
2022-09-23T11:02:39.466Z,17.27
2022-09-23T11:05:43.417Z,17.43
2022-09-23T11:08:18.213Z,17.34
2022-09-23T11:11:03.970Z,17.46
2022-09-23T11:14:01.001Z,17.56
2022-09-23T11:16:41.459Z,17.54
2022-09-23T11:19:45.837Z,17.50
2022-09-23T11:22:21.460Z,17.54
2022-09-23T11:25:27.377Z,17.59
2022-09-23T11:28:29.377Z,17.64
2022-09-23T11:31:24.096Z,17.63
2022-09-23T11:34:32.098Z,17.80
2022-09-23T11:37:20.487Z,17.82
2022-09-23T11:39:54.895Z,17.73
2022-09-23T11:42:26.946Z,17.73
2022-09-23T11:45:00.333Z,17.94
2022-09-23T11:47:43.077Z,18.14
2022-09-23T11:50:18.925Z,18.03
2022-09-23T11:52:52.275Z,17.92
2022-09-23T11:55:24.332Z,17.93
2022-09-23T11:57:54.310Z,17.99
2022-09-23T12:00:27.908Z,18.03
2022-09-23T12:03:18.293Z,18.16
2022-09-23T12:05:48.170Z,18.23
2022-09-23T12:08:30.429Z,18.27
2022-09-23T12:10:56.902Z,18.14
2022-09-23T12:13:48.322Z,18.27
2022-09-23T12:16:50.648Z,18.52
2022-09-23T12:19:38.682Z,18.62
2022-09-23T12:22:29.566Z,18.34
2022-09-23T12:25:20.690Z,18.51
2022-09-23T12:27:52.073Z,18.58
2022-09-23T12:30:34.368Z,18.69
2022-09-23T12:33:24.863Z,18.72
2022-09-23T12:36:02.034Z,18.70
2022-09-23T12:38:38.264Z,18.63
2022-09-23T12:41:24.537Z,18.59
2022-09-23T12:43:56.182Z,18.43
2022-09-23T12:46:25.656Z,18.48
2022-09-23T12:48:58.074Z,18.62
2022-09-23T12:51:29.035Z,18.71
2022-09-23T12:54:05.578Z,18.71
2022-09-23T12:56:38.653Z,18.46
2022-09-23T12:59:17.208Z,18.41
2022-09-23T13:01:44.699Z,18.36
2022-09-23T13:04:49.594Z,18.36
2022-09-23T13:07:21.952Z,18.36
2022-09-23T13:09:52.526Z,18.29
2022-09-23T13:12:31.073Z,18.32
2022-09-23T13:15:03.246Z,18.28
2022-09-23T13:17:37.270Z,18.27
2022-09-23T13:20:34.712Z,18.23
2022-09-23T13:23:26.129Z,18.20
2022-09-23T13:25:56.174Z,18.28
2022-09-23T13:28:27.415Z,18.40
2022-09-23T13:30:54.330Z,18.47
2022-09-23T13:33:38.750Z,18.57
2022-09-23T13:36:11.929Z,18.48
2022-09-23T13:38:38.461Z,18.35
2022-09-23T13:41:13.777Z,18.29
2022-09-23T13:43:45.987Z,18.23
2022-09-23T13:46:17.278Z,18.20
2022-09-23T13:48:46.194Z,18.16
2022-09-23T13:51:24.856Z,18.17
2022-09-23T13:53:54.293Z,18.27
2022-09-23T13:56:21.065Z,18.31
2022-09-23T13:58:48.782Z,18.42
2022-09-23T14:01:32.279Z,18.33
2022-09-23T14:03:59.966Z,18.31
2022-09-23T14:06:29.917Z,18.37
2022-09-23T14:08:59.754Z,18.37
2022-09-23T14:11:33.099Z,18.35
2022-09-23T14:14:06.625Z,18.40
2022-09-23T14:16:38.092Z,18.37
2022-09-23T14:19:06.380Z,18.39
2022-09-23T14:21:37.040Z,18.30
2022-09-23T14:24:18.830Z,18.32
2022-09-23T14:27:06.348Z,18.38
2022-09-23T14:29:41.511Z,18.43
2022-09-23T14:32:15.688Z,18.36
2022-09-23T14:34:51.111Z,18.37
2022-09-23T14:37:42.387Z,18.36
2022-09-23T14:40:13.430Z,18.37
2022-09-23T14:42:43.234Z,18.34
2022-09-23T14:45:15.395Z,18.43
2022-09-23T14:47:49.873Z,18.39
2022-09-23T14:50:38.909Z,18.46
2022-09-23T14:53:23.711Z,18.41
2022-09-23T14:55:58.744Z,18.37
2022-09-23T14:58:28.639Z,18.38
2022-09-23T15:01:00.637Z,18.35
2022-09-23T15:03:28.470Z,18.37
2022-09-23T15:06:08.346Z,18.34
2022-09-23T15:08:35.685Z,18.45
2022-09-23T15:11:08.120Z,18.58
2022-09-23T15:13:41.544Z,18.64
2022-09-23T15:16:08.302Z,18.61
2022-09-23T15:18:36.886Z,18.63
2022-09-23T15:21:10.086Z,18.41
2022-09-23T15:23:36.568Z,18.37
2022-09-23T15:26:09.660Z,18.46
2022-09-23T15:28:36.121Z,18.47
2022-09-23T15:31:05.644Z,18.34
2022-09-23T15:33:32.581Z,18.38
2022-09-23T15:35:59.012Z,18.39
2022-09-23T15:38:27.135Z,18.39
2022-09-23T15:40:54.241Z,18.34
2022-09-23T15:43:26.460Z,18.24
2022-09-23T15:45:53.243Z,18.20
2022-09-23T15:48:24.011Z,18.14
2022-09-23T15:50:51.423Z,18.16
2022-09-23T15:53:21.791Z,18.24
2022-09-23T15:55:51.374Z,18.28
2022-09-23T15:58:21.980Z,18.23
2022-09-23T16:00:55.919Z,18.20
2022-09-23T16:03:30.211Z,18.18
2022-09-23T16:06:01.017Z,18.07
2022-09-23T16:08:28.817Z,18.09
2022-09-23T16:10:55.673Z,18.16
2022-09-23T16:13:22.178Z,18.17
2022-09-23T16:15:48.712Z,18.12
2022-09-23T16:18:15.283Z,18.14
2022-09-23T16:20:44.632Z,18.19
2022-09-23T16:23:14.250Z,18.17
2022-09-23T16:25:40.804Z,18.02
2022-09-23T16:28:07.277Z,18.05
2022-09-23T16:30:34.485Z,18.05
2022-09-23T16:33:01.845Z,18.04
2022-09-23T16:35:32.664Z,18.09
2022-09-23T16:37:59.399Z,18.17
2022-09-23T16:40:26.017Z,18.22
2022-09-23T16:42:54.826Z,18.26
2022-09-23T16:45:23.165Z,18.22
2022-09-23T16:47:51.516Z,18.11
2022-09-23T16:50:20.708Z,18.16
2022-09-23T16:52:47.260Z,18.25
2022-09-23T16:55:15.058Z,18.27
2022-09-23T16:57:42.008Z,18.25
2022-09-23T17:00:32.239Z,18.24
2022-09-23T17:03:18.096Z,18.24
2022-09-23T17:05:46.800Z,18.28
2022-09-23T17:08:15.235Z,18.30
2022-09-23T17:10:43.318Z,18.28
2022-09-23T17:13:11.011Z,18.25
2022-09-23T17:15:41.391Z,18.26
2022-09-23T17:18:08.645Z,18.26
2022-09-23T17:20:36.103Z,18.24
2022-09-23T17:23:05.900Z,18.20
2022-09-23T17:25:33.929Z,18.19
2022-09-23T17:28:00.840Z,18.16
2022-09-23T17:30:27.555Z,18.14
2022-09-23T17:32:54.253Z,18.06
2022-09-23T17:35:20.751Z,18.05
2022-09-23T17:37:47.568Z,18.06
2022-09-23T17:40:14.324Z,18.05
2022-09-23T17:42:41.398Z,18.04
2022-09-23T17:45:12.422Z,18.02
2022-09-23T17:47:41.851Z,17.97
2022-09-23T17:50:08.668Z,17.92
2022-09-23T17:52:35.198Z,17.89
2022-09-23T17:55:01.796Z,17.86
2022-09-23T17:57:28.259Z,17.77
2022-09-23T17:59:56.033Z,17.72
2022-09-23T18:02:22.807Z,17.69
2022-09-23T18:04:49.687Z,17.69
2022-09-23T18:07:16.519Z,17.70
2022-09-23T18:09:43.011Z,17.68
2022-09-23T18:12:09.563Z,17.65
2022-09-23T18:14:36.108Z,17.61
2022-09-23T18:17:02.678Z,17.54
2022-09-23T18:19:29.327Z,17.50
2022-09-23T18:21:57.215Z,17.53
2022-09-23T18:24:33.029Z,17.54
2022-09-23T18:27:01.260Z,17.50
2022-09-23T18:29:28.070Z,17.50
2022-09-23T18:31:54.664Z,17.48
2022-09-23T18:34:21.290Z,17.47
2022-09-23T18:36:47.812Z,17.47
2022-09-23T18:39:15.107Z,17.43
2022-09-23T18:41:41.634Z,17.39
2022-09-23T18:44:08.349Z,17.40
2022-09-23T18:46:35.415Z,17.41
2022-09-23T18:49:20.679Z,17.38
2022-09-23T18:51:50.908Z,17.34
2022-09-23T18:54:18.298Z,17.31
2022-09-23T18:56:46.324Z,17.27
2022-09-23T18:59:16.612Z,17.24
2022-09-23T19:01:45.767Z,17.26
2022-09-23T19:04:14.095Z,17.27
2022-09-23T19:06:40.677Z,17.29
2022-09-23T19:09:08.064Z,17.27
2022-09-23T19:11:36.174Z,17.26
2022-09-23T19:14:05.640Z,17.24
2022-09-23T19:16:34.803Z,17.20
2022-09-23T19:19:02.579Z,17.17
2022-09-23T19:21:30.383Z,17.10
2022-09-23T19:24:05.695Z,17.09
2022-09-23T19:26:38.140Z,17.10
2022-09-23T19:29:06.240Z,17.08
2022-09-23T19:31:35.319Z,17.07
2022-09-23T19:34:05.923Z,17.08
2022-09-23T19:36:34.419Z,17.07
2022-09-23T19:39:04.225Z,17.04
2022-09-23T19:41:33.288Z,17.04
2022-09-23T19:44:07.033Z,17.04
2022-09-23T19:46:37.111Z,17.00
2022-09-23T19:49:05.555Z,16.99
2022-09-23T19:51:35.691Z,17.00
2022-09-23T19:54:04.496Z,17.01
2022-09-23T19:56:32.336Z,17.01
2022-09-23T19:59:00.034Z,17.02
2022-09-23T20:01:29.303Z,17.02
2022-09-23T20:03:56.250Z,17.04
2022-09-23T20:06:22.868Z,17.03
2022-09-23T20:08:49.807Z,16.96
2022-09-23T20:11:18.958Z,16.86
2022-09-23T20:13:49.908Z,16.80
2022-09-23T20:16:19.435Z,16.75
2022-09-23T20:18:47.042Z,16.72
2022-09-23T20:21:15.568Z,16.74
2022-09-23T20:23:42.590Z,16.77
2022-09-23T20:26:28.473Z,16.75
2022-09-23T20:28:55.247Z,16.78
2022-09-23T20:31:23.038Z,16.77
2022-09-23T20:33:53.643Z,16.78
2022-09-23T20:36:20.124Z,16.79
2022-09-23T20:38:46.640Z,16.78
2022-09-23T20:41:14.485Z,16.79
2022-09-23T20:43:41.602Z,16.83
2022-09-23T20:46:09.103Z,16.80
2022-09-23T20:48:35.601Z,16.74
2022-09-23T20:51:03.841Z,16.60
2022-09-23T20:53:31.792Z,16.64
2022-09-23T20:55:59.457Z,16.62
2022-09-23T20:58:27.659Z,16.59
2022-09-23T21:00:59.211Z,16.63
2022-09-23T21:03:26.542Z,16.59
2022-09-23T21:05:53.046Z,16.57
2022-09-23T21:08:19.870Z,16.58
2022-09-23T21:10:54.260Z,16.54
2022-09-23T21:13:20.811Z,16.53
2022-09-23T21:15:47.348Z,16.54
2022-09-23T21:18:17.131Z,16.50
2022-09-23T21:20:54.442Z,16.50
2022-09-23T21:23:25.070Z,16.47
2022-09-23T21:25:51.998Z,16.47
2022-09-23T21:28:19.009Z,16.48
2022-09-23T21:30:51.132Z,16.50
2022-09-23T21:33:18.362Z,16.48
2022-09-23T21:35:44.822Z,16.39
2022-09-23T21:38:11.301Z,16.39
2022-09-23T21:40:56.161Z,16.38
2022-09-23T21:43:23.681Z,16.40
2022-09-23T21:45:56.910Z,16.41
2022-09-23T21:48:24.246Z,16.45
2022-09-23T21:50:55.077Z,16.44
2022-09-23T21:53:23.624Z,16.47
2022-09-23T21:55:50.708Z,16.45
2022-09-23T21:58:17.315Z,16.47
2022-09-23T22:00:43.982Z,16.48
2022-09-23T22:03:11.987Z,16.50
2022-09-23T22:05:41.593Z,16.49
2022-09-23T22:08:09.125Z,16.49
2022-09-23T22:10:37.264Z,16.45
2022-09-23T22:13:08.141Z,16.43
2022-09-23T22:15:38.445Z,16.44
2022-09-23T22:18:05.388Z,16.43
2022-09-23T22:20:33.053Z,16.36
2022-09-23T22:22:59.629Z,16.13
2022-09-23T22:25:26.159Z,16.08
2022-09-23T22:28:11.030Z,16.01
2022-09-23T22:30:57.386Z,15.64
2022-09-23T22:33:23.963Z,15.81
2022-09-23T22:35:50.923Z,15.73
2022-09-23T22:38:18.946Z,15.66
2022-09-23T22:40:45.485Z,15.54
2022-09-23T22:43:12.088Z,15.54
2022-09-23T22:45:39.588Z,15.66
2022-09-23T22:48:06.090Z,15.79
2022-09-23T22:50:32.566Z,15.87
2022-09-23T22:52:59.599Z,15.79
2022-09-23T22:55:26.130Z,15.78
2022-09-23T22:57:52.617Z,15.63
2022-09-23T23:00:19.506Z,15.68
2022-09-23T23:02:46.345Z,15.52
2022-09-23T23:05:14.434Z,15.59
2022-09-23T23:07:41.381Z,15.75
2022-09-23T23:10:10.346Z,15.76
2022-09-23T23:12:37.137Z,15.83
2022-09-23T23:15:03.867Z,15.93
2022-09-23T23:17:30.357Z,15.94
2022-09-23T23:19:57.808Z,16.00
2022-09-23T23:22:27.175Z,16.05
2022-09-23T23:24:54.584Z,16.04
2022-09-23T23:27:21.135Z,16.00
2022-09-23T23:29:47.686Z,16.04
2022-09-23T23:32:14.195Z,16.11
2022-09-23T23:34:40.706Z,16.10
2022-09-23T23:37:07.470Z,16.13
2022-09-23T23:39:34.077Z,16.11
2022-09-23T23:42:00.771Z,16.10
2022-09-23T23:44:27.485Z,16.10
2022-09-23T23:46:54.914Z,16.15
2022-09-23T23:49:21.906Z,16.15
2022-09-23T23:51:48.893Z,16.16
2022-09-23T23:54:15.578Z,16.13
2022-09-23T23:56:42.427Z,16.16
2022-09-23T23:59:08.896Z,16.16
